Time,TemperatureF,DewpointF,PressureIn,WindDirection,WindDirectionDegrees,WindSpeedMPH,WindSpeedGustMPH,Humidity,HourlyPrecipIn,Conditions,Clouds,dailyrainin,SoftwareType,DateUTC
2013-03-02 00:00:00,34.7,27.6,29.96,SSW,202,0.0,0.0,75,0.00,,SKC,0.00,VWS V14.00,2013-03-02 05:00:00,
2013-03-02 00:20:00,34.7,27.3,29.96,SW,225,0.0,0.0,74,0.00,,SKC,0.00,VWS V14.00,2013-03-02 05:20:00,
2013-03-02 00:40:00,34.7,27.3,29.95,West,270,0.0,0.0,74,0.00,,SKC,0.00,VWS V14.00,2013-03-02 05:40:00,
2013-03-02 01:00:00,34.7,27.3,29.96,South,180,0.0,3.4,74,0.00,,SKC,0.00,VWS V14.00,2013-03-02 06:00:00,
2013-03-02 01:20:00,34.5,27.1,29.95,SSE,158,0.0,0.0,74,0.00,,SKC,0.00,VWS V14.00,2013-03-02 06:20:00,
2013-03-02 01:40:00,34.3,26.9,29.95,South,180,0.0,0.0,74,0.00,,SKC,0.00,VWS V14.00,2013-03-02 06:40:00,
2013-03-02 02:00:00,34.3,26.9,29.95,NW,315,0.0,0.0,74,0.00,,SKC,0.00,VWS V14.00,2013-03-02 07:00:00,
2013-03-02 02:20:00,34.3,26.9,29.95,South,180,0.0,0.0,74,0.00,,SKC,0.00,VWS V14.00,2013-03-02 07:20:00,
2013-03-02 02:40:00,34.3,26.6,29.95,West,270,0.0,0.0,73,0.00,,SKC,0.00,VWS V14.00,2013-03-02 07:40:00,
2013-03-02 03:00:00,34.3,26.3,29.94,West,270,0.0,0.0,72,0.00,,SKC,0.00,VWS V14.00,2013-03-02 08:00:00,
2013-03-02 03:20:00,34.3,26.3,29.93,WNW,292,0.0,0.0,72,0.00,,SKC,0.00,VWS V14.00,2013-03-02 08:20:00,
2013-03-02 03:40:00,34.3,25.9,29.94,WNW,292,0.0,0.0,71,0.00,,SKC,0.00,VWS V14.00,2013-03-02 08:40:00,
2013-03-02 04:00:00,34.3,26.3,29.93,WNW,292,0.0,0.0,72,0.00,,SKC,0.00,VWS V14.00,2013-03-02 09:00:00,
2013-03-02 04:20:00,34.3,26.3,29.93,WNW,292,0.0,0.0,72,0.00,,SKC,0.00,VWS V14.00,2013-03-02 09:20:00,
2013-03-02 04:40:00,34.3,25.9,29.93,NNE,22,0.0,0.0,71,0.00,,SKC,0.00,VWS V14.00,2013-03-02 09:40:00,
2013-03-02 05:00:00,34.3,26.3,29.93,NNE,22,0.0,0.0,72,0.00,,SKC,0.00,VWS V14.00,2013-03-02 10:00:00,
2013-03-02 05:20:00,34.2,26.1,29.94,NE,45,0.0,0.7,72,0.00,,SKC,0.00,VWS V14.00,2013-03-02 10:20:00,
2013-03-02 06:00:00,34.0,25.2,29.94,North,0,0.0,0.0,70,0.00,,SKC,0.00,VWS V14.00,2013-03-02 11:00:00,
2013-03-02 06:20:00,33.6,24.5,29.94,South,180,0.0,0.0,69,0.00,,SKC,0.00,VWS V14.00,2013-03-02 11:20:00,
2013-03-02 06:40:00,33.4,24.0,29.94,SSE,158,0.0,0.0,68,0.00,,SKC,0.00,VWS V14.00,2013-03-02 11:40:00,
2013-03-02 07:00:00,33.4,24.0,29.95,NE,45,0.0,0.0,68,0.00,,SKC,0.00,VWS V14.00,2013-03-02 12:00:00,
2013-03-02 07:20:00,33.3,23.9,29.96,North,0,0.0,0.0,68,0.00,,SKC,0.00,VWS V14.00,2013-03-02 12:20:00,
2013-03-02 07:40:00,33.4,24.0,29.96,East,90,0.0,0.0,68,0.00,,SKC,0.00,VWS V14.00,2013-03-02 12:40:00,
2013-03-02 08:00:00,33.4,23.7,29.97,WNW,292,0.0,2.2,67,0.00,,SKC,0.00,VWS V14.00,2013-03-02 13:00:00,
2013-03-02 08:20:00,33.4,23.3,29.97,South,180,0.0,1.3,66,0.00,,SKC,0.00,VWS V14.00,2013-03-02 13:20:00,
2013-03-02 08:40:00,33.8,23.7,29.98,WNW,292,0.0,0.0,66,0.00,,SKC,0.00,VWS V14.00,2013-03-02 13:40:00,
2013-03-02 09:00:00,34.2,23.6,29.98,SSW,202,0.0,0.0,65,0.00,,SKC,0.00,VWS V14.00,2013-03-02 14:00:00,
2013-03-02 09:20:00,34.5,23.6,29.98,SSW,202,0.0,0.0,64,0.00,,SKC,0.00,VWS V14.00,2013-03-02 14:20:00,
2013-03-02 09:40:00,34.7,23.8,29.98,NNW,338,0.0,0.0,64,0.00,,SKC,0.00,VWS V14.00,2013-03-02 14:40:00,
2013-03-02 10:00:00,35.1,23.8,29.98,South,180,0.0,0.0,63,0.00,,SKC,0.00,VWS V14.00,2013-03-02 15:00:00,
2013-03-02 10:20:00,35.2,23.1,29.98,SSE,158,0.0,2.0,61,0.00,,SKC,0.00,VWS V14.00,2013-03-02 15:20:00,
2013-03-02 10:40:00,35.8,23.3,29.98,South,180,0.0,2.9,60,0.00,,SKC,0.00,VWS V14.00,2013-03-02 15:40:00,
2013-03-02 11:00:00,36.0,23.0,29.98,NNW,338,1.8,1.8,59,0.00,,SKC,0.00,VWS V14.00,2013-03-02 16:00:00,
2013-03-02 11:20:00,36.1,22.8,29.99,ENE,68,0.0,3.6,58,0.00,,SKC,0.00,VWS V14.00,2013-03-02 16:20:00,
2013-03-02 11:40:00,36.5,23.1,29.99,NW,315,0.0,0.0,58,0.00,,SKC,0.00,VWS V14.00,2013-03-02 16:40:00,
2013-03-02 12:00:00,36.3,22.6,29.98,SW,225,0.0,0.0,57,0.00,,SKC,0.00,VWS V14.00,2013-03-02 17:00:00,
2013-03-02 12:20:00,37.0,23.2,29.98,WNW,292,0.0,0.0,57,0.00,,SKC,0.00,VWS V14.00,2013-03-02 17:20:00,
2013-03-02 12:40:00,37.6,23.7,29.98,SSW,202,0.0,1.8,57,0.00,,SKC,0.00,VWS V14.00,2013-03-02 17:40:00,
2013-03-02 13:00:00,37.8,24.3,29.97,WNW,292,0.0,2.2,58,0.00,,SKC,0.00,VWS V14.00,2013-03-02 18:00:00,
2013-03-02 13:20:00,39.2,25.3,29.97,SW,225,0.0,4.0,57,0.00,,SKC,0.00,VWS V14.00,2013-03-02 18:20:00,
2013-03-02 13:40:00,38.7,24.3,29.97,SSW,202,0.0,4.5,56,0.00,,SKC,0.00,VWS V14.00,2013-03-02 18:40:00,
2013-03-02 14:00:00,38.7,24.8,29.96,SW,225,0.0,1.1,57,0.00,,SKC,0.00,VWS V14.00,2013-03-02 19:00:00,
2013-03-02 14:20:00,38.8,25.3,29.96,SW,225,0.0,0.0,58,0.00,,SKC,0.00,VWS V14.00,2013-03-02 19:20:00,
2013-03-02 14:40:00,39.0,25.1,29.96,SSW,202,0.0,3.1,57,0.00,,SKC,0.00,VWS V14.00,2013-03-02 19:40:00,
2013-03-02 15:00:00,38.3,24.8,29.96,SSW,202,0.0,5.4,58,0.00,,SKC,0.00,VWS V14.00,2013-03-02 20:00:00,
2013-03-02 15:20:00,38.1,25.1,29.97,SSW,202,0.0,0.0,59,0.00,,SKC,0.00,VWS V14.00,2013-03-02 20:20:00,
2013-03-02 15:40:00,37.4,24.4,29.97,WSW,248,0.0,2.7,59,0.00,,SKC,0.00,VWS V14.00,2013-03-02 20:40:00,
2013-03-02 16:00:00,37.4,24.4,29.97,NNE,22,0.0,3.4,59,0.00,,SKC,0.00,VWS V14.00,2013-03-02 21:00:00,
2013-03-02 16:20:00,37.2,24.2,29.97,SSE,158,0.0,1.6,59,0.00,,SKC,0.00,VWS V14.00,2013-03-02 21:20:00,
2013-03-02 16:40:00,37.0,23.6,29.98,South,180,0.0,3.6,58,0.00,,SKC,0.00,VWS V14.00,2013-03-02 21:40:00,
2013-03-02 17:00:00,36.9,23.5,29.98,SSE,158,0.0,2.7,58,0.00,,SKC,0.00,VWS V14.00,2013-03-02 22:00:00,
2013-03-02 17:20:00,36.9,23.5,29.98,NNW,338,0.0,3.4,58,0.00,,SKC,0.00,VWS V14.00,2013-03-02 22:20:00,
2013-03-02 17:40:00,36.1,22.4,29.99,South,180,0.0,1.1,57,0.00,,SKC,0.00,VWS V14.00,2013-03-02 22:40:00,
2013-03-02 18:00:00,35.6,22.3,30.00,South,180,0.0,0.0,58,0.00,,SKC,0.00,VWS V14.00,2013-03-02 23:00:00,
2013-03-02 18:20:00,35.2,22.8,30.01,NNE,22,0.0,0.0,60,0.00,,SKC,0.00,VWS V14.00,2013-03-02 23:20:00,
2013-03-02 18:40:00,35.1,22.2,30.01,East,90,0.0,0.0,59,0.00,,SKC,0.00,VWS V14.00,2013-03-02 23:40:00,
2013-03-02 19:00:00,34.7,21.9,30.01,North,0,0.0,0.0,59,0.00,,SKC,0.00,VWS V14.00,2013-03-03 00:00:00,
2013-03-02 19:20:00,34.5,22.1,30.02,North,0,0.0,0.0,60,0.00,,SKC,0.00,VWS V14.00,2013-03-03 00:20:00,
2013-03-02 19:40:00,34.2,22.1,30.02,NNE,22,0.0,0.0,61,0.00,,SKC,0.00,VWS V14.00,2013-03-03 00:40:00,
2013-03-02 20:00:00,34.2,21.7,30.02,North,0,0.0,3.1,60,0.00,,SKC,0.00,VWS V14.00,2013-03-03 01:00:00,
2013-03-02 20:20:00,34.0,21.6,30.02,NW,315,0.0,0.0,60,0.00,,SKC,0.00,VWS V14.00,2013-03-03 01:20:00,
2013-03-02 20:40:00,33.6,21.2,30.02,NE,45,0.0,0.0,60,0.00,,SKC,0.00,VWS V14.00,2013-03-03 01:40:00,
2013-03-02 21:00:00,33.4,21.1,30.03,SE,135,0.0,0.0,60,0.00,,SKC,0.00,VWS V14.00,2013-03-03 02:00:00,
2013-03-02 21:20:00,33.4,21.1,30.03,West,270,0.0,2.9,60,0.00,,SKC,0.00,VWS V14.00,2013-03-03 02:20:00,
2013-03-02 21:40:00,33.4,21.1,30.04,East,90,0.0,0.0,60,0.00,,SKC,0.00,VWS V14.00,2013-03-03 02:40:00,
2013-03-02 22:00:00,33.3,20.9,30.04,South,180,0.0,3.4,60,0.00,,SKC,0.00,VWS V14.00,2013-03-03 03:00:00,
2013-03-02 22:20:00,33.1,20.3,30.04,South,180,0.0,2.7,59,0.00,,SKC,0.00,VWS V14.00,2013-03-03 03:20:00,
2013-03-02 22:40:00,32.9,20.2,30.04,North,0,3.1,3.1,59,0.00,,SKC,0.00,VWS V14.00,2013-03-03 03:40:00,
2013-03-02 23:00:00,32.7,20.4,30.04,NNW,338,0.0,3.1,60,0.00,,SKC,0.00,VWS V14.00,2013-03-03 04:00:00,
2013-03-02 23:20:00,32.4,20.0,30.04,North,0,0.0,2.7,60,0.00,,SKC,0.00,VWS V14.00,2013-03-03 04:20:00,
2013-03-02 23:40:00,32.4,20.0,30.04,NW,315,0.0,0.9,60,0.00,,SKC,0.00,VWS V14.00,2013-03-03 04:40:00,